Time;durP1;ratioP1;P1;durP2;ratioP2;P2;SDS_P1;SDS_P2;PMS_P1;PMS_P2;Temp;Humidity;BMP_temperature;BMP_pressure;BME280_temperature;BME280_humidity;BME280_pressure;Samples;Min_cycle;Max_cycle;Signal;HPM_P1;HPM_P2
2023/06/25 00:00:20;;;;;;;16.53;10.50;;;;;;;;;;5048852;28;20029;-62
2023/06/25 00:02:45;;;;;;;14.17;9.67;;;;;;;;;;5048979;28;20025;-64
2023/06/25 00:05:11;;;;;;;15.15;9.60;;;;;;;;;;5050946;28;20063;-62
2023/06/25 00:07:36;;;;;;;15.20;9.93;;;;;;;;;;5051100;28;20092;-64
2023/06/25 00:10:02;;;;;;;16.60;10.27;;;;;;;;;;5051343;28;20036;-63
2023/06/25 00:12:27;;;;;;;18.20;11.10;;;;;;;;;;5050727;28;20442;-63
2023/06/25 00:14:52;;;;;;;15.88;9.95;;;;;;;;;;5050891;28;20020;-62
2023/06/25 00:17:17;;;;;;;14.48;9.38;;;;;;;;;;5047115;28;20078;-63
2023/06/25 00:19:43;;;;;;;14.80;10.47;;;;;;;;;;5048205;28;20461;-64
2023/06/25 00:22:11;;;;;;;15.15;9.55;;;;;;;;;;5047947;28;20052;-65
2023/06/25 00:24:36;;;;;;;15.90;10.00;;;;;;;;;;5049905;28;20468;-64
2023/06/25 00:27:01;;;;;;;15.52;9.27;;;;;;;;;;5042812;28;20151;-65
2023/06/25 00:29:26;;;;;;;17.38;9.85;;;;;;;;;;5029609;28;20040;-63
2023/06/25 00:31:51;;;;;;;14.63;9.20;;;;;;;;;;5026769;28;20017;-62
2023/06/25 00:34:19;;;;;;;15.73;9.57;;;;;;;;;;5024443;28;20467;-63
2023/06/25 00:36:45;;;;;;;17.30;9.63;;;;;;;;;;5026312;28;20117;-63
2023/06/25 00:39:10;;;;;;;14.38;9.27;;;;;;;;;;5025220;28;20535;-62
2023/06/25 00:41:35;;;;;;;14.25;9.00;;;;;;;;;;5036351;28;20033;-63
2023/06/25 00:44:04;;;;;;;16.85;9.65;;;;;;;;;;5044358;28;20478;-64
2023/06/25 00:46:30;;;;;;;18.85;10.07;;;;;;;;;;5050020;28;20466;-62
2023/06/25 00:48:55;;;;;;;16.58;9.82;;;;;;;;;;5042382;28;20024;-63
2023/06/25 00:51:21;;;;;;;16.03;9.53;;;;;;;;;;5046418;28;20032;-64
2023/06/25 00:53:46;;;;;;;17.33;10.10;;;;;;;;;;5043900;28;20452;-63
2023/06/25 00:56:12;;;;;;;15.95;9.63;;;;;;;;;;5048692;28;20059;-61
2023/06/25 00:58:38;;;;;;;16.70;10.40;;;;;;;;;;5041490;28;20021;-62
2023/06/25 01:01:03;;;;;;;;;;;;;;;;;;5039823;28;20025;-61
2023/06/25 01:03:36;;;;;;;15.87;9.27;;;;;;;;;;5046680;28;19905;-63
2023/06/25 01:06:35;;;;;;;16.33;10.30;;;;;;;;;;5033471;28;20416;-63
2023/06/25 01:09:01;;;;;;;15.18;8.70;;;;;;;;;;5052414;28;20033;-64
2023/06/25 01:11:26;;;;;;;16.27;9.10;;;;;;;;;;5049525;28;20098;-63
2023/06/25 01:13:52;;;;;;;15.10;9.32;;;;;;;;;;5051051;28;20024;-63
2023/06/25 01:16:17;;;;;;;15.77;9.40;;;;;;;;;;5055384;28;20056;-63
2023/06/25 01:18:42;;;;;;;16.10;9.47;;;;;;;;;;5058182;28;20024;-62
2023/06/25 01:21:08;;;;;;;16.08;8.98;;;;;;;;;;5049993;28;20025;-63
2023/06/25 01:23:34;;;;;;;14.68;8.75;;;;;;;;;;5049583;28;20010;-62
2023/06/25 01:25:59;;;;;;;15.27;9.00;;;;;;;;;;5035867;28;20611;-63
2023/06/25 01:28:25;;;;;;;15.13;8.57;;;;;;;;;;5043563;28;20086;-65
2023/06/25 01:30:52;;;;;;;15.10;8.50;;;;;;;;;;5039084;28;20139;-62
2023/06/25 01:33:17;;;;;;;14.85;9.13;;;;;;;;;;5043409;28;20067;-64
2023/06/25 01:35:43;;;;;;;13.63;7.93;;;;;;;;;;5053815;28;20049;-65
2023/06/25 01:38:08;;;;;;;15.60;8.30;;;;;;;;;;5047463;28;20108;-62
2023/06/25 01:40:33;;;;;;;13.50;8.53;;;;;;;;;;5041371;28;20384;-64
2023/06/25 01:42:58;;;;;;;16.07;8.57;;;;;;;;;;5050414;28;20021;-64
2023/06/25 01:45:23;;;;;;;13.35;8.02;;;;;;;;;;5053915;28;20105;-65
2023/06/25 01:47:48;;;;;;;13.07;7.30;;;;;;;;;;5044450;28;20040;-62
2023/06/25 01:50:14;;;;;;;13.60;7.93;;;;;;;;;;5046385;28;20021;-63
2023/06/25 01:52:39;;;;;;;14.43;7.87;;;;;;;;;;5053271;28;20071;-64
2023/06/25 01:55:05;;;;;;;12.80;7.63;;;;;;;;;;5053025;28;20516;-62
2023/06/25 01:57:30;;;;;;;13.15;7.38;;;;;;;;;;5050608;28;20064;-62
2023/06/25 01:59:55;;;;;;;14.93;8.73;;;;;;;;;;5050858;28;20389;-64
2023/06/25 02:02:20;;;;;;;14.90;7.82;;;;;;;;;;5052887;28;20031;-64
2023/06/25 02:04:45;;;;;;;15.38;8.30;;;;;;;;;;5053343;28;20028;-64
2023/06/25 02:07:10;;;;;;;13.60;7.37;;;;;;;;;;5049829;28;20445;-62
2023/06/25 02:09:35;;;;;;;13.77;7.88;;;;;;;;;;5043883;28;20075;-63
2023/06/25 02:12:00;;;;;;;12.48;7.45;;;;;;;;;;5052551;28;20017;-63
2023/06/25 02:14:26;;;;;;;12.88;7.63;;;;;;;;;;5049977;28;20060;-63
2023/06/25 02:16:51;;;;;;;13.13;7.40;;;;;;;;;;5050055;28;20051;-62
2023/06/25 02:19:16;;;;;;;13.20;7.60;;;;;;;;;;5053370;28;20528;-62
2023/06/25 02:21:41;;;;;;;13.90;8.32;;;;;;;;;;5054291;28;20032;-63
2023/06/25 02:24:06;;;;;;;14.00;7.67;;;;;;;;;;5053326;28;20035;-62
2023/06/25 02:26:32;;;;;;;13.93;8.00;;;;;;;;;;5053002;28;20396;-65
2023/06/25 02:28:57;;;;;;;14.40;7.67;;;;;;;;;;5050936;28;20982;-64
2023/06/25 02:31:22;;;;;;;12.17;7.13;;;;;;;;;;5050716;28;20053;-64
2023/06/25 02:33:47;;;;;;;10.80;7.00;;;;;;;;;;5051620;28;20392;-63
2023/06/25 02:36:12;;;;;;;13.63;7.28;;;;;;;;;;5043122;28;20025;-65
2023/06/25 02:38:37;;;;;;;12.53;7.07;;;;;;;;;;5054512;28;20036;-64
2023/06/25 02:41:02;;;;;;;12.63;6.60;;;;;;;;;;5054148;28;20021;-63
2023/06/25 02:43:28;;;;;;;11.53;7.77;;;;;;;;;;5051628;28;20029;-61
2023/06/25 02:45:53;;;;;;;10.48;6.28;;;;;;;;;;5034946;28;20056;-63
2023/06/25 02:48:18;;;;;;;12.83;6.60;;;;;;;;;;5050081;28;20016;-62
2023/06/25 02:50:43;;;;;;;13.13;7.07;;;;;;;;;;5052024;28;20032;-63
2023/06/25 02:53:08;;;;;;;10.00;6.47;;;;;;;;;;5044706;28;20022;-64
2023/06/25 02:55:33;;;;;;;12.40;6.37;;;;;;;;;;5038409;28;20032;-65
2023/06/25 02:57:59;;;;;;;12.90;6.30;;;;;;;;;;5051680;28;20064;-64
2023/06/25 03:00:24;;;;;;;10.73;6.67;;;;;;;;;;5047318;28;20029;-63
2023/06/25 03:02:49;;;;;;;9.30;6.20;;;;;;;;;;5045798;28;20032;-63
2023/06/25 03:05:14;;;;;;;13.40;6.70;;;;;;;;;;5048934;28;20025;-63
2023/06/25 03:07:52;;;;;;;10.90;6.10;;;;;;;;;;5049719;28;20024;-63
2023/06/25 03:10:18;;;;;;;12.10;6.10;;;;;;;;;;5052289;28;20523;-66
2023/06/25 03:12:43;;;;;;;13.10;7.27;;;;;;;;;;5051646;28;20029;-65
2023/06/25 03:15:08;;;;;;;10.20;5.70;;;;;;;;;;5047090;28;20032;-63
2023/06/25 03:17:33;;;;;;;12.23;6.13;;;;;;;;;;5051525;28;20107;-61
2023/06/25 03:19:59;;;;;;;12.03;6.40;;;;;;;;;;5044153;28;20021;-62
2023/06/25 03:22:24;;;;;;;11.05;6.72;;;;;;;;;;5051722;28;20040;-62
2023/06/25 03:24:49;;;;;;;12.10;6.75;;;;;;;;;;5049770;28;20069;-64
2023/06/25 03:27:14;;;;;;;11.10;6.22;;;;;;;;;;5052678;28;20035;-65
2023/06/25 03:29:39;;;;;;;10.68;6.40;;;;;;;;;;5051860;28;20051;-64
2023/06/25 03:32:05;;;;;;;10.65;6.60;;;;;;;;;;5051902;28;20029;-63
2023/06/25 03:34:30;;;;;;;12.57;6.35;;;;;;;;;;5050676;28;20025;-62
2023/06/25 03:36:55;;;;;;;13.13;6.68;;;;;;;;;;5057206;28;20025;-63
2023/06/25 03:39:21;;;;;;;10.73;6.87;;;;;;;;;;5063094;28;20055;-64
2023/06/25 03:41:46;;;;;;;11.13;5.93;;;;;;;;;;5057662;28;20029;-65
2023/06/25 03:44:11;;;;;;;11.05;6.05;;;;;;;;;;5054304;28;20035;-64
2023/06/25 03:46:37;;;;;;;11.53;6.10;;;;;;;;;;5058972;28;20025;-64
2023/06/25 03:49:02;;;;;;;11.20;5.18;;;;;;;;;;5056996;28;20155;-62
2023/06/25 03:51:27;;;;;;;12.50;5.90;;;;;;;;;;5046820;28;20029;-62
2023/06/25 03:53:54;;;;;;;11.93;6.32;;;;;;;;;;5050910;28;20017;-61
2023/06/25 03:56:19;;;;;;;10.88;5.90;;;;;;;;;;5050966;28;20079;-64
2023/06/25 03:58:45;;;;;;;13.05;6.32;;;;;;;;;;5044034;28;20029;-64
2023/06/25 04:01:12;;;;;;;10.07;5.43;;;;;;;;;;5050120;28;20523;-65
2023/06/25 04:03:37;;;;;;;10.48;6.13;;;;;;;;;;5050785;28;20079;-65
2023/06/25 04:06:03;;;;;;;10.63;6.88;;;;;;;;;;5051521;28;20420;-63
2023/06/25 04:08:28;;;;;;;14.53;6.07;;;;;;;;;;5051832;28;20017;-63
2023/06/25 04:10:53;;;;;;;8.10;5.03;;;;;;;;;;5051845;28;20542;-65
2023/06/25 04:13:18;;;;;;;9.52;5.57;;;;;;;;;;5047911;28;20016;-64
2023/06/25 04:15:43;;;;;;;11.25;5.28;;;;;;;;;;5049067;28;20021;-62
2023/06/25 04:18:08;;;;;;;10.27;5.13;;;;;;;;;;5052754;28;20020;-63
2023/06/25 04:20:33;;;;;;;9.63;5.53;;;;;;;;;;5053008;28;20024;-63
2023/06/25 04:22:59;;;;;;;9.13;5.30;;;;;;;;;;5052294;28;20083;-62
2023/06/25 04:25:25;;;;;;;9.98;5.45;;;;;;;;;;5052346;28;20032;-63
2023/06/25 04:27:50;;;;;;;9.88;5.75;;;;;;;;;;5051888;28;20016;-64
2023/06/25 04:30:15;;;;;;;12.27;5.57;;;;;;;;;;5044980;28;20028;-63
2023/06/25 04:32:41;;;;;;;11.83;5.70;;;;;;;;;;5045447;28;20025;-61
2023/06/25 04:35:06;;;;;;;9.73;5.32;;;;;;;;;;5048938;28;20111;-64
2023/06/25 04:37:31;;;;;;;10.88;5.43;;;;;;;;;;5050336;28;20086;-62
2023/06/25 04:39:56;;;;;;;10.50;5.83;;;;;;;;;;5050975;28;20419;-64
2023/06/25 04:42:21;;;;;;;8.37;5.10;;;;;;;;;;5050678;28;20384;-64
2023/06/25 04:44:47;;;;;;;11.60;5.30;;;;;;;;;;5050942;28;20037;-63
2023/06/25 04:47:12;;;;;;;10.45;5.68;;;;;;;;;;5046358;28;20025;-63
2023/06/25 04:49:39;;;;;;;9.80;5.70;;;;;;;;;;5041929;28;20393;-65
2023/06/25 04:52:04;;;;;;;9.23;4.60;;;;;;;;;;5050713;28;20067;-64
2023/06/25 04:54:29;;;;;;;9.23;5.32;;;;;;;;;;5050331;28;20427;-63
2023/06/25 04:56:54;;;;;;;10.20;5.45;;;;;;;;;;5050175;28;20021;-64
2023/06/25 04:59:19;;;;;;;9.82;4.90;;;;;;;;;;5050376;28;20032;-64
2023/06/25 05:01:44;;;;;;;9.82;5.25;;;;;;;;;;5050257;28;20134;-63
2023/06/25 05:04:10;;;;;;;10.82;4.90;;;;;;;;;;5042508;28;20033;-64
2023/06/25 05:06:35;;;;;;;9.30;5.03;;;;;;;;;;5043248;28;20037;-64
2023/06/25 05:09:00;;;;;;;9.73;5.27;;;;;;;;;;5038850;28;20502;-64
2023/06/25 05:11:25;;;;;;;7.50;4.88;;;;;;;;;;5048013;28;20158;-63
2023/06/25 05:13:50;;;;;;;9.60;5.33;;;;;;;;;;5040238;28;20044;-64
2023/06/25 05:16:15;;;;;;;8.55;5.13;;;;;;;;;;5035780;28;21260;-63
2023/06/25 05:18:41;;;;;;;8.27;4.63;;;;;;;;;;5047960;28;20623;-63
2023/06/25 05:21:06;;;;;;;10.40;4.50;;;;;;;;;;5046830;28;20063;-64
2023/06/25 05:23:58;;;;;;;10.95;4.70;;;;;;;;;;5046296;28;20052;-64
2023/06/25 05:26:23;;;;;;;9.98;4.75;;;;;;;;;;5049091;28;20477;-64
2023/06/25 05:28:48;;;;;;;7.70;4.60;;;;;;;;;;5050060;28;20028;-62
2023/06/25 05:31:14;;;;;;;8.10;4.40;;;;;;;;;;5050248;28;20527;-65
2023/06/25 05:33:39;;;;;;;8.32;4.65;;;;;;;;;;5049595;28;20021;-65
2023/06/25 05:36:04;;;;;;;8.93;4.97;;;;;;;;;;5038540;28;20392;-63
2023/06/25 05:38:29;;;;;;;7.30;4.47;;;;;;;;;;5049954;28;20025;-63
2023/06/25 05:40:55;;;;;;;7.43;4.37;;;;;;;;;;5038351;28;20021;-64
2023/06/25 05:43:20;;;;;;;9.63;4.33;;;;;;;;;;5046526;28;20491;-63
2023/06/25 05:45:45;;;;;;;10.23;4.57;;;;;;;;;;5030753;28;20025;-64
2023/06/25 05:48:11;;;;;;;8.15;4.80;;;;;;;;;;5046158;28;20100;-64
2023/06/25 05:50:36;;;;;;;8.05;4.85;;;;;;;;;;5048956;28;20547;-63
2023/06/25 05:53:01;;;;;;;9.43;4.40;;;;;;;;;;5030563;28;20056;-64
2023/06/25 05:55:27;;;;;;;8.45;4.63;;;;;;;;;;5045983;28;20029;-63
2023/06/25 05:57:52;;;;;;;10.50;4.60;;;;;;;;;;5035125;28;20440;-65
2023/06/25 06:00:17;;;;;;;6.80;4.18;;;;;;;;;;5041721;28;20030;-64
2023/06/25 06:02:42;;;;;;;9.60;4.85;;;;;;;;;;5038014;28;20559;-65
2023/06/25 06:05:08;;;;;;;8.73;4.20;;;;;;;;;;5047644;28;20032;-63
2023/06/25 06:07:33;;;;;;;8.93;4.30;;;;;;;;;;5042934;28;20380;-63
2023/06/25 06:09:58;;;;;;;9.60;5.00;;;;;;;;;;5041760;28;20013;-63
2023/06/25 06:12:23;;;;;;;11.35;4.43;;;;;;;;;;5053849;28;20028;-63
2023/06/25 06:14:48;;;;;;;9.97;4.57;;;;;;;;;;5044969;28;20017;-63
2023/06/25 06:17:14;;;;;;;8.98;4.53;;;;;;;;;;5048553;28;20029;-64
2023/06/25 06:19:39;;;;;;;8.85;4.88;;;;;;;;;;5043722;28;20055;-64
2023/06/25 06:22:04;;;;;;;12.27;4.90;;;;;;;;;;5045909;28;20028;-63
2023/06/25 06:24:29;;;;;;;8.60;4.50;;;;;;;;;;5039932;28;20021;-63
2023/06/25 06:26:54;;;;;;;9.45;4.85;;;;;;;;;;5051410;28;20112;-65
2023/06/25 06:29:19;;;;;;;10.02;4.70;;;;;;;;;;5049108;28;20052;-63
2023/06/25 06:31:45;;;;;;;9.87;4.53;;;;;;;;;;5045412;28;20029;-63
2023/06/25 06:34:10;;;;;;;7.70;4.57;;;;;;;;;;5049134;28;20021;-65
2023/06/25 06:36:35;;;;;;;8.07;4.97;;;;;;;;;;5041528;28;20403;-64
2023/06/25 06:39:00;;;;;;;7.82;4.57;;;;;;;;;;5041910;28;20028;-64
2023/06/25 06:41:26;;;;;;;8.03;4.63;;;;;;;;;;5047442;28;20025;-63
2023/06/25 06:43:51;;;;;;;9.68;4.85;;;;;;;;;;5038754;28;20452;-64
2023/06/25 06:46:16;;;;;;;7.78;5.03;;;;;;;;;;5036065;28;20025;-62
2023/06/25 06:48:41;;;;;;;7.25;4.35;;;;;;;;;;5036540;28;20028;-64
2023/06/25 06:51:06;;;;;;;8.20;4.90;;;;;;;;;;5050130;28;20439;-64
2023/06/25 06:53:31;;;;;;;8.65;4.63;;;;;;;;;;5038851;28;20033;-61
2023/06/25 06:55:56;;;;;;;7.60;4.70;;;;;;;;;;5047328;28;20037;-63
2023/06/25 06:58:22;;;;;;;7.93;4.63;;;;;;;;;;5041548;28;20040;-63
2023/06/25 07:00:47;;;;;;;7.87;4.47;;;;;;;;;;5046230;28;20111;-65
2023/06/25 07:03:12;;;;;;;7.43;4.22;;;;;;;;;;5050651;28;20021;-62
2023/06/25 07:05:37;;;;;;;6.93;4.23;;;;;;;;;;5041545;28;20018;-63
2023/06/25 07:08:03;;;;;;;8.45;4.22;;;;;;;;;;5039664;28;20198;-63
2023/06/25 07:10:28;;;;;;;6.53;3.90;;;;;;;;;;5042386;28;20056;-66
2023/06/25 07:12:53;;;;;;;8.43;4.38;;;;;;;;;;5045402;28;20493;-64
2023/06/25 07:15:18;;;;;;;7.93;4.37;;;;;;;;;;5041708;28;20022;-63
2023/06/25 07:17:44;;;;;;;10.50;4.50;;;;;;;;;;5046178;28;20052;-64
2023/06/25 07:20:09;;;;;;;8.80;4.28;;;;;;;;;;5041168;28;20024;-63
2023/06/25 07:22:36;;;;;;;7.35;4.15;;;;;;;;;;5042079;28;20025;-62
2023/06/25 07:25:01;;;;;;;7.75;4.43;;;;;;;;;;5037497;28;20470;-64
2023/06/25 07:27:26;;;;;;;8.40;4.03;;;;;;;;;;5043594;28;20040;-63
2023/06/25 07:29:51;;;;;;;9.47;4.27;;;;;;;;;;5051834;28;20025;-63
2023/06/25 07:32:16;;;;;;;6.30;3.85;;;;;;;;;;5038175;28;20032;-64
2023/06/25 07:34:41;;;;;;;7.77;4.00;;;;;;;;;;5038801;28;20635;-64
2023/06/25 07:37:07;;;;;;;;;;;;;;;;;;5043947;28;20340;-63
2023/06/25 07:39:33;;;;;;;7.95;4.30;;;;;;;;;;5040605;28;20399;-65
2023/06/25 07:41:58;;;;;;;9.65;4.57;;;;;;;;;;5038954;28;20384;-65
2023/06/25 07:44:23;;;;;;;;;;;;;;;;;;5041737;28;20036;-63
2023/06/25 07:46:48;;;;;;;7.13;4.10;;;;;;;;;;5044579;28;19919;-65
2023/06/25 07:49:13;;;;;;;;;;;;;;;;;;5043351;28;20137;-65
2023/06/25 07:51:39;;;;;;;7.13;4.00;;;;;;;;;;5040389;28;19917;-65
2023/06/25 07:54:04;;;;;;;8.15;4.10;;;;;;;;;;5033190;28;20088;-63
2023/06/25 07:56:29;;;;;;;8.48;3.97;;;;;;;;;;5033140;28;20041;-65
2023/06/25 07:58:54;;;;;;;6.93;4.00;;;;;;;;;;5036298;28;20100;-65
2023/06/25 08:01:20;;;;;;;7.10;3.55;;;;;;;;;;5044792;28;20025;-65
2023/06/25 08:03:45;;;;;;;6.38;3.65;;;;;;;;;;5043141;28;20036;-65
2023/06/25 08:06:10;;;;;;;;;;;;;;;;;;5039878;28;20021;-66
2023/06/25 08:08:35;;;;;;;7.32;3.88;;;;;;;;;;5041134;28;19908;-63
2023/06/25 08:11:00;;;;;;;;;;;;;;;;;;5045620;28;20047;-65
2023/06/25 08:13:25;;;;;;;7.90;3.43;;;;;;;;;;5040677;28;20272;-65
2023/06/25 08:15:51;;;;;;;;;;;;;;;;;;5034849;28;20028;-65
2023/06/25 08:18:16;;;;;;;7.20;3.70;;;;;;;;;;5038485;28;20280;-65
2023/06/25 08:20:42;;;;;;;14.53;3.87;;;;;;;;;;5045825;28;20021;-66
2023/06/25 08:23:07;;;;;;;6.20;3.40;;;;;;;;;;5035715;28;20056;-64
2023/06/25 08:25:32;;;;;;;6.10;3.47;;;;;;;;;;5042243;28;20091;-67
2023/06/25 08:27:57;;;;;;;;;;;;;;;;;;5045451;28;20077;-59
2023/06/25 08:30:23;;;;;;;6.45;3.20;;;;;;;;;;5033358;28;19909;-56
2023/06/25 08:32:48;;;;;;;;;;;;;;;;;;5042992;28;20009;-62
2023/06/25 08:35:13;;;;;;;7.60;3.30;;;;;;;;;;5042386;28;19916;-61
2023/06/25 08:37:38;;;;;;;;;;;;;;;;;;5035441;28;20496;-59
2023/06/25 08:40:03;;;;;;;7.18;3.33;;;;;;;;;;5044747;28;19909;-66
2023/06/25 08:42:29;;;;;;;7.03;3.65;;;;;;;;;;5040253;28;20032;-65
2023/06/25 08:44:55;;;;;;;6.25;3.72;;;;;;;;;;5038182;28;20384;-64
2023/06/25 08:47:21;;;;;;;6.78;3.72;;;;;;;;;;5037558;28;20397;-64
2023/06/25 08:49:46;;;;;;;;;;;;;;;;;;5048511;28;20551;-64
2023/06/25 08:52:12;;;;;;;5.82;3.20;;;;;;;;;;5049954;28;20400;-65
2023/06/25 08:54:37;;;;;;;7.22;3.28;;;;;;;;;;5050764;28;20017;-64
2023/06/25 08:57:02;;;;;;;6.13;3.10;;;;;;;;;;5050714;28;20046;-65
2023/06/25 08:59:27;;;;;;;6.47;3.30;;;;;;;;;;5051014;28;20028;-66
2023/06/25 09:01:52;;;;;;;5.95;3.10;;;;;;;;;;5050061;28;20051;-64
2023/06/25 09:04:17;;;;;;;;;;;;;;;;;;5051196;28;20021;-66
2023/06/25 09:06:42;;;;;;;6.55;2.95;;;;;;;;;;5044237;28;19944;-65
2023/06/25 09:09:07;;;;;;;;;;;;;;;;;;5032800;28;20021;-65
2023/06/25 09:11:33;;;;;;;8.88;3.33;;;;;;;;;;5040151;28;19909;-64
2023/06/25 09:13:58;;;;;;;;;;;;;;;;;;5051015;28;20021;-66
2023/06/25 09:16:23;;;;;;;5.43;3.20;;;;;;;;;;5050632;28;19912;-64
2023/06/25 09:18:48;;;;;;;;;;;;;;;;;;5050811;28;20413;-63
2023/06/25 09:21:14;;;;;;;6.55;3.30;;;;;;;;;;5050842;28;19905;-65
2023/06/25 09:23:39;;;;;;;;;;;;;;;;;;5048529;28;20488;-64
2023/06/25 09:26:06;;;;;;;7.07;3.22;;;;;;;;;;5034038;28;19924;-64
2023/06/25 09:28:31;;;;;;;6.53;3.38;;;;;;;;;;5031168;28;20029;-64
2023/06/25 09:30:59;;;;;;;;;;;;;;;;;;5031384;28;20168;-64
2023/06/25 09:33:33;;;;;;;5.80;3.20;;;;;;;;;;5030319;28;19905;-64
2023/06/25 09:36:07;;;;;;;6.82;3.30;;;;;;;;;;5031311;28;20025;-64
2023/06/25 09:38:32;;;;;;;8.68;3.60;;;;;;;;;;5030261;28;20040;-66
2023/06/25 09:40:58;;;;;;;;;;;;;;;;;;5033729;28;20096;-64
2023/06/25 09:43:23;;;;;;;5.40;3.05;;;;;;;;;;5030269;28;19909;-64
2023/06/25 09:45:48;;;;;;;;;;;;;;;;;;5030767;28;20018;-65
2023/06/25 09:48:15;;;;;;;7.00;3.78;;;;;;;;;;5030461;28;20345;-66
2023/06/25 09:50:44;;;;;;;6.70;3.67;;;;;;;;;;5030398;28;20057;-65
2023/06/25 09:53:13;;;;;;;6.43;3.63;;;;;;;;;;5029714;28;20366;-66
2023/06/25 09:55:38;;;;;;;7.90;3.55;;;;;;;;;;5031901;28;20029;-65
2023/06/25 09:58:03;;;;;;;;;;;;;;;;;;5033822;28;20038;-66
2023/06/25 10:00:29;;;;;;;6.88;3.40;;;;;;;;;;5045509;28;19991;-65
2023/06/25 10:02:54;;;;;;;;;;;;;;;;;;5055252;28;20542;-64
2023/06/25 10:05:19;;;;;;;6.10;3.30;;;;;;;;;;5053640;28;19904;-65
2023/06/25 10:07:44;;;;;;;;;;;;;;;;;;5054227;28;20032;-64
2023/06/25 10:10:22;;;;;;;6.07;3.60;;;;;;;;;;5053435;28;20124;-64
2023/06/25 10:12:49;;;;;;;5.97;3.47;;;;;;;;;;5053112;28;20052;-64
2023/06/25 10:15:14;;;;;;;5.60;3.22;;;;;;;;;;5044042;28;20025;-64
2023/06/25 10:17:39;;;;;;;;;;;;;;;;;;5033961;28;20465;-67
2023/06/25 10:20:05;;;;;;;6.82;2.97;;;;;;;;;;5033713;28;20353;-65
2023/06/25 10:22:33;;;;;;;6.57;3.55;;;;;;;;;;5033121;28;20099;-65
2023/06/25 10:24:58;;;;;;;6.20;3.45;;;;;;;;;;5033362;28;20025;-64
2023/06/25 10:27:23;;;;;;;;;;;;;;;;;;5034078;28;20117;-65
2023/06/25 10:29:48;;;;;;;7.00;4.20;;;;;;;;;;5032800;28;20323;-63
2023/06/25 10:32:13;;;;;;;;;;;;;;;;;;5036728;28;20022;-66
2023/06/25 10:34:39;;;;;;;8.50;4.30;;;;;;;;;;5033174;28;20319;-64
2023/06/25 10:37:04;;;;;;;;;;;;;;;;;;5034193;28;20032;-65
2023/06/25 10:39:36;;;;;;;6.33;3.80;;;;;;;;;;5033158;28;19905;-65
2023/06/25 10:42:03;;;;;;;7.38;3.95;;;;;;;;;;5050650;28;20438;-64
2023/06/25 10:44:28;;;;;;;6.35;3.30;;;;;;;;;;5052896;28;20057;-64
2023/06/25 10:46:53;;;;;;;;;;;;;;;;;;5053611;28;20507;-65
2023/06/25 10:49:19;;;;;;;6.32;3.47;;;;;;;;;;5048771;28;19905;-64
2023/06/25 10:51:44;;;;;;;;;;;;;;;;;;5033901;28;20044;-63
2023/06/25 10:54:11;;;;;;;5.95;3.47;;;;;;;;;;5032713;28;19905;-66
2023/06/25 10:56:37;;;;;;;6.57;3.58;;;;;;;;;;5033335;28;20037;-64
2023/06/25 10:59:02;;;;;;;;;;;;;;;;;;5041019;28;20017;-65
2023/06/25 11:01:32;;;;;;;5.82;3.42;;;;;;;;;;5053163;28;20410;-66
2023/06/25 11:03:58;;;;;;;6.35;3.83;;;;;;;;;;5052128;28;20050;-64
2023/06/25 11:06:23;;;;;;;;;;;;;;;;;;5040720;28;20037;-65
2023/06/25 11:08:49;;;;;;;6.13;3.47;;;;;;;;;;5032406;28;19909;-65
2023/06/25 11:11:14;;;;;;;6.88;3.70;;;;;;;;;;5032650;28;20469;-65
2023/06/25 11:13:40;;;;;;;;;;;;;;;;;;5032547;28;20100;-65
2023/06/25 11:16:05;;;;;;;9.10;3.80;;;;;;;;;;5032563;28;19912;-64
2023/06/25 11:18:30;;;;;;;;;;;;;;;;;;5040266;28;20447;-64
2023/06/25 11:20:57;;;;;;;6.38;3.30;;;;;;;;;;5052171;28;19987;-64
2023/06/25 11:23:22;;;;;;;6.25;3.35;;;;;;;;;;5051757;28;20021;-65
2023/06/25 11:25:47;;;;;;;;;;;;;;;;;;5052757;28;20021;-65
2023/06/25 11:28:14;;;;;;;5.32;3.35;;;;;;;;;;5052113;28;19950;-65
2023/06/25 11:30:39;;;;;;;5.93;3.40;;;;;;;;;;5052216;28;20039;-65
2023/06/25 11:33:04;;;;;;;;;;;;;;;;;;5048484;28;20477;-65
2023/06/25 11:35:30;;;;;;;6.38;3.42;;;;;;;;;;5035596;28;19958;-66
2023/06/25 11:37:55;;;;;;;;;;;;;;;;;;5033450;28;20038;-66
2023/06/25 11:40:21;;;;;;;6.60;3.75;;;;;;;;;;5033107;28;20329;-64
2023/06/25 11:42:47;;;;;;;;;;;;;;;;;;5032146;28;20025;-65
2023/06/25 11:45:12;;;;;;;7.68;3.47;;;;;;;;;;5032199;28;19906;-64
2023/06/25 11:47:37;;;;;;;;;;;;;;;;;;5032283;28;20104;-64
2023/06/25 11:50:02;;;;;;;6.50;3.38;;;;;;;;;;5032019;28;19928;-66
2023/06/25 11:52:27;;;;;;;;;;;;;;;;;;5035343;28;20103;-64
2023/06/25 11:54:53;;;;;;;5.28;2.92;;;;;;;;;;5031728;28;19971;-65
2023/06/25 11:57:18;;;;;;;;;;;;;;;;;;5036425;28;20021;-64
2023/06/25 11:59:43;;;;;;;5.90;3.28;;;;;;;;;;5052000;28;20015;-65
2023/06/25 12:02:08;;;;;;;;;;;;;;;;;;5051765;28;20475;-63
2023/06/25 12:04:33;;;;;;;7.47;3.35;;;;;;;;;;5052112;28;19991;-65
2023/06/25 12:06:58;;;;;;;;;;;;;;;;;;5052377;28;20021;-64
2023/06/25 12:09:23;;;;;;;6.88;3.28;;;;;;;;;;5046016;28;19916;-66
2023/06/25 12:11:49;;;;;;;;;;;;;;;;;;5032091;28;20465;-66
2023/06/25 12:14:14;;;;;;;5.30;3.05;;;;;;;;;;5030431;28;19955;-65
2023/06/25 12:16:39;;;;;;;;;;;;;;;;;;5032270;28;20029;-65
2023/06/25 12:19:05;;;;;;;5.95;3.15;;;;;;;;;;5031936;28;19917;-64
2023/06/25 12:21:30;;;;;;;;;;;;;;;;;;5037607;28;20046;-64
2023/06/25 12:23:55;;;;;;;5.90;3.20;;;;;;;;;;5041238;28;20003;-65
2023/06/25 12:26:20;;;;;;;5.70;3.13;;;;;;;;;;5038151;28;20025;-64
2023/06/25 12:28:48;;;;;;;;;;;;;;;;;;5040483;28;20057;-63
2023/06/25 12:31:13;;;;;;;5.18;3.00;;;;;;;;;;5046063;28;19908;-66
2023/06/25 12:33:38;;;;;;;;;;;;;;;;;;5046620;28;20017;-64
2023/06/25 12:36:03;;;;;;;5.10;3.03;;;;;;;;;;5045881;28;20380;-65
2023/06/25 12:38:28;;;;;;;;;;;;;;;;;;5049567;28;20029;-62
2023/06/25 12:40:56;;;;;;;4.85;2.85;;;;;;;;;;5048939;28;19916;-65
2023/06/25 12:43:21;;;;;;;5.28;3.30;;;;;;;;;;5039540;28;20615;-65
2023/06/25 12:45:47;;;;;;;;;;;;;;;;;;5035788;28;20109;-64
2023/06/25 12:48:12;;;;;;;6.03;3.37;;;;;;;;;;5038566;28;19912;-65
2023/06/25 12:50:37;;;;;;;;;;;;;;;;;;5042354;28;20029;-66
2023/06/25 12:53:02;;;;;;;5.13;3.10;;;;;;;;;;5048794;28;19909;-66
2023/06/25 12:55:27;;;;;;;;;;;;;;;;;;5049087;28;20090;-64
2023/06/25 12:57:52;;;;;;;7.53;3.25;;;;;;;;;;5045657;28;19916;-66
2023/06/25 13:00:17;;;;;;;;;;;;;;;;;;5041916;28;20016;-64
2023/06/25 13:02:42;;;;;;;5.35;3.22;;;;;;;;;;5041796;28;19915;-65
2023/06/25 13:05:08;;;;;;;7.93;3.03;;;;;;;;;;5046649;28;20423;-65
2023/06/25 13:07:33;;;;;;;;;;;;;;;;;;5040896;28;20032;-64
2023/06/25 13:09:58;;;;;;;6.05;3.33;;;;;;;;;;5039894;28;19908;-66
2023/06/25 13:12:23;;;;;;;;;;;;;;;;;;5037407;28;20021;-65
2023/06/25 13:14:48;;;;;;;5.50;3.30;;;;;;;;;;5042750;28;19994;-67
2023/06/25 13:17:13;;;;;;;;;;;;;;;;;;5043971;28;20032;-65
2023/06/25 13:19:39;;;;;;;6.30;3.42;;;;;;;;;;5040613;28;20301;-65
2023/06/25 13:22:04;;;;;;;6.15;3.13;;;;;;;;;;5042378;28;20108;-63
2023/06/25 13:24:30;;;;;;;;;;;;;;;;;;5044203;28;20186;-64
2023/06/25 13:26:55;;;;;;;6.43;3.47;;;;;;;;;;5040886;28;20400;-65
2023/06/25 13:29:20;;;;;;;6.97;3.43;;;;;;;;;;5039786;28;20025;-65
2023/06/25 13:31:45;;;;;;;;;;;;;;;;;;5040174;28;20025;-65
2023/06/25 13:34:10;;;;;;;6.20;3.30;;;;;;;;;;5045911;28;19978;-65
2023/06/25 13:36:35;;;;;;;5.40;3.28;;;;;;;;;;5051446;28;20036;-66
2023/06/25 13:39:00;;;;;;;;;;;;;;;;;;5051737;28;20029;-65
2023/06/25 13:41:26;;;;;;;5.70;3.53;;;;;;;;;;5042429;28;19940;-64
2023/06/25 13:43:52;;;;;;;;;;;;;;;;;;5047007;28;20021;-66
2023/06/25 13:46:17;;;;;;;5.47;3.55;;;;;;;;;;5053197;28;20295;-65
2023/06/25 13:48:42;;;;;;;;;;;;;;;;;;5055001;28;20025;-64
2023/06/25 13:51:07;;;;;;;7.93;3.60;;;;;;;;;;5044596;28;19924;-64
2023/06/25 13:53:32;;;;;;;5.95;3.72;;;;;;;;;;5042779;28;20075;-64
2023/06/25 13:55:58;;;;;;;5.28;3.20;;;;;;;;;;5044558;28;20047;-65
2023/06/25 13:58:23;;;;;;;9.23;3.67;;;;;;;;;;5048028;28;20488;-66
2023/06/25 14:00:54;;;;;;;7.23;3.53;;;;;;;;;;5050167;28;20017;-65
2023/06/25 14:03:20;;;;;;;7.45;3.40;;;;;;;;;;5048538;28;20027;-65
2023/06/25 14:05:45;;;;;;;;;;;;;;;;;;5052439;28;20021;-63
2023/06/25 14:08:10;;;;;;;5.25;3.08;;;;;;;;;;5053247;28;19935;-66
2023/06/25 14:10:35;;;;;;;;;;;;;;;;;;5041625;28;20025;-64
2023/06/25 14:13:01;;;;;;;5.82;3.58;;;;;;;;;;5051790;28;19909;-64
2023/06/25 14:15:26;;;;;;;;;;;;;;;;;;5053349;28;20535;-65
2023/06/25 14:17:51;;;;;;;5.43;3.33;;;;;;;;;;5053394;28;20295;-65
2023/06/25 14:20:17;;;;;;;;;;;;;;;;;;5051787;28;20033;-64
2023/06/25 14:22:42;;;;;;;6.30;3.28;;;;;;;;;;5052078;28;19909;-64
2023/06/25 14:25:07;;;;;;;;;;;;;;;;;;5044899;28;20086;-64
2023/06/25 14:27:32;;;;;;;5.93;3.40;;;;;;;;;;5053470;28;20478;-63
2023/06/25 14:29:59;;;;;;;5.93;3.50;;;;;;;;;;5053476;28;20025;-63
2023/06/25 14:32:24;;;;;;;5.93;3.10;;;;;;;;;;5049057;28;20091;-64
2023/06/25 14:34:49;;;;;;;;;;;;;;;;;;5048550;28;20696;-65
2023/06/25 14:37:14;;;;;;;5.78;3.15;;;;;;;;;;5049319;28;20355;-65
2023/06/25 14:39:39;;;;;;;6.05;2.83;;;;;;;;;;5030424;28;20052;-64
2023/06/25 14:42:04;;;;;;;5.43;3.20;;;;;;;;;;5047142;28;20037;-64
2023/06/25 14:44:30;;;;;;;4.93;2.77;;;;;;;;;;5041793;28;20515;-65
2023/06/25 14:46:55;;;;;;;5.80;3.08;;;;;;;;;;5048197;28;20377;-64